Time;durP1;ratioP1;P1;durP2;ratioP2;P2;SDS_P1;SDS_P2;PMS_P1;PMS_P2;Temp;Humidity;BMP_temperature;BMP_pressure;BME280_temperature;BME280_humidity;BME280_pressure;Samples;Min_cycle;Max_cycle;Signal;HPM_P1;HPM_P2
2022/03/20 00:01:02;;;;;;;;;;;9.80;99.90;;;;;;5094847;28;19951;-78
2022/03/20 00:03:28;;;;;;;;;;;9.90;99.90;;;;;;5094526;28;20294;-78
2022/03/20 00:05:54;;;;;;;;;;;9.80;99.90;;;;;;5093630;28;19915;-78
2022/03/20 00:08:20;;;;;;;;;;;9.80;99.90;;;;;;5094379;28;19908;-78
2022/03/20 00:10:47;;;;;;;;;;;9.80;99.90;;;;;;5093930;28;19912;-77
2022/03/20 00:13:15;;;;;;;;;;;9.80;99.90;;;;;;5094549;28;19912;-78
2022/03/20 00:15:41;;;;;;;;;;;9.70;99.90;;;;;;5093764;28;19994;-78
2022/03/20 00:18:07;;;;;;;;;;;9.70;99.90;;;;;;5094444;28;19920;-78
2022/03/20 00:20:35;;;;;;;;;;;9.70;99.90;;;;;;5093729;28;19908;-78
2022/03/20 00:23:02;;;;;;;;;;;9.70;99.90;;;;;;5094406;28;19916;-79
2022/03/20 00:25:27;;;;;;;;;;;9.70;99.90;;;;;;5093008;28;20002;-79
2022/03/20 00:27:53;;;;;;;;;;;9.60;99.90;;;;;;5093453;28;19931;-78
2022/03/20 00:30:19;;;;;;;;;;;9.60;99.90;;;;;;5094273;28;19912;-78
2022/03/20 00:32:44;;;;;;;;;;;9.60;99.90;;;;;;5093493;28;19961;-78
2022/03/20 00:35:10;;;;;;;;;;;9.60;99.90;;;;;;5093733;28;19912;-78
2022/03/20 00:37:36;;;;;;;;;;;9.60;99.90;;;;;;5093678;28;19973;-78
2022/03/20 00:40:02;;;;;;;;;;;9.60;99.90;;;;;;5093796;28;20365;-78
2022/03/20 00:42:27;;;;;;;;;;;9.50;99.90;;;;;;5093945;28;19908;-78
2022/03/20 00:44:53;;;;;;;;;;;9.50;99.90;;;;;;5092926;28;20143;-78
2022/03/20 00:47:19;;;;;;;;;;;9.40;99.90;;;;;;5093852;28;19908;-78
2022/03/20 00:49:44;;;;;;;;;;;9.40;99.90;;;;;;5093521;28;19908;-78
2022/03/20 00:52:10;;;;;;;;;;;9.30;99.90;;;;;;5092982;28;20394;-78
2022/03/20 00:54:35;;;;;;;;;;;9.30;99.90;;;;;;5126186;27;19912;-78
2022/03/20 00:57:01;;;;;;;;;;;9.20;99.90;;;;;;5093865;28;19934;-78
2022/03/20 00:59:27;;;;;;;;;;;9.20;99.90;;;;;;5093535;28;20269;-78
2022/03/20 01:01:52;;;;;;;;;;;9.20;99.90;;;;;;5093020;28;19908;-78
2022/03/20 01:04:18;;;;;;;;;;;9.20;99.90;;;;;;5093704;28;19917;-78
2022/03/20 01:06:44;;;;;;;;;;;9.20;99.90;;;;;;5092606;28;20344;-78
2022/03/20 01:09:09;;;;;;;;;;;9.10;99.90;;;;;;5093259;28;19943;-77
2022/03/20 01:11:35;;;;;;;;;;;9.10;99.90;;;;;;5093300;28;20418;-78
2022/03/20 01:14:00;;;;;;;;;;;9.10;99.90;;;;;;5095031;28;19918;-78
2022/03/20 01:16:26;;;;;;;;;;;9.10;99.90;;;;;;5092831;28;19920;-78
2022/03/20 01:18:51;;;;;;;;;;;9.00;99.90;;;;;;5091440;28;19931;-78
2022/03/20 01:21:17;;;;;;;;;;;9.00;99.90;;;;;;5093789;28;19908;-77
2022/03/20 01:23:43;;;;;;;;;;;9.00;99.90;;;;;;5093197;28;19908;-77
2022/03/20 01:26:09;;;;;;;;;;;9.00;99.90;;;;;;5093701;28;20002;-77
2022/03/20 01:28:35;;;;;;;;;;;9.00;99.90;;;;;;5093621;28;19909;-77
2022/03/20 01:31:01;;;;;;;;;;;9.00;99.90;;;;;;5092954;28;19915;-77
2022/03/20 01:33:26;;;;;;;;;;;9.00;99.90;;;;;;5093770;28;19908;-77
2022/03/20 01:35:52;;;;;;;;;;;8.90;99.90;;;;;;5092650;28;19916;-77
2022/03/20 01:38:20;;;;;;;;;;;8.90;99.90;;;;;;5093458;28;20329;-77
2022/03/20 01:40:47;;;;;;;;;;;8.90;99.90;;;;;;5092756;28;20260;-77
2022/03/20 01:43:13;;;;;;;;;;;8.90;99.90;;;;;;5093433;28;19978;-77
2022/03/20 01:45:39;;;;;;;;;;;8.80;99.90;;;;;;5092714;28;19912;-77
2022/03/20 01:48:04;;;;;;;;;;;8.80;99.90;;;;;;5093691;28;20280;-77
2022/03/20 01:50:32;;;;;;;;;;;8.80;99.90;;;;;;5093260;28;19908;-77
2022/03/20 01:52:58;;;;;;;;;;;8.70;99.90;;;;;;5092312;28;20007;-78
2022/03/20 01:55:24;;;;;;;;;;;8.70;99.90;;;;;;5093205;28;19927;-77
2022/03/20 01:57:50;;;;;;;;;;;8.70;99.90;;;;;;5092705;28;20284;-77
2022/03/20 02:00:17;;;;;;;;;;;8.70;99.90;;;;;;5093368;28;19912;-77
2022/03/20 02:02:43;;;;;;;;;;;8.70;99.90;;;;;;5092592;28;19908;-77
2022/03/20 02:05:10;;;;;;;;;;;8.70;99.90;;;;;;5093135;28;20385;-77
2022/03/20 02:07:36;;;;;;;;;;;8.70;99.90;;;;;;5093046;28;20020;-77
2022/03/20 02:10:03;;;;;;;;;;;8.60;99.90;;;;;;5092346;28;20430;-77
2022/03/20 02:12:29;;;;;;;;;;;8.60;99.90;;;;;;5092933;28;20006;-77
2022/03/20 02:15:01;;;;;;;;;;;8.60;99.90;;;;;;5091157;28;20034;-77
2022/03/20 02:17:29;;;;;;;;;;;8.60;99.90;;;;;;5092411;28;19978;-77
2022/03/20 02:19:57;;;;;;;;;;;8.60;99.90;;;;;;5092441;28;19973;-77
2022/03/20 02:22:24;;;;;;;;;;;8.50;99.90;;;;;;5093024;28;19914;-77
2022/03/20 02:24:51;;;;;;;;;;;8.50;99.90;;;;;;5092150;28;20311;-77
2022/03/20 02:27:27;;;;;;;;;;;8.50;99.90;;;;;;5092806;28;19908;-77
2022/03/20 02:29:56;;;;;;;;;;;8.50;99.90;;;;;;5092821;28;19915;-77
2022/03/20 02:32:23;;;;;;;;;;;8.40;99.90;;;;;;5093080;28;19908;-77
2022/03/20 02:34:49;;;;;;;;;;;8.40;99.90;;;;;;5092221;28;20296;-76
2022/03/20 02:37:19;;;;;;;;;;;8.40;99.90;;;;;;5092839;28;19913;-76
2022/03/20 02:39:45;;;;;;;;;;;8.40;99.90;;;;;;5092195;28;19909;-76
2022/03/20 02:42:13;;;;;;;;;;;8.40;99.90;;;;;;5092670;28;20396;-76
2022/03/20 02:44:55;;;;;;;;;;;8.30;99.90;;;;;;5092571;28;19916;-76
2022/03/20 02:47:23;;;;;;;;;;;8.40;99.90;;;;;;5091383;28;19915;-76
2022/03/20 02:49:56;;;;;;;;;;;8.40;99.90;;;;;;5124508;28;19957;-76
2022/03/20 02:52:26;;;;;;;;;;;8.30;99.90;;;;;;5092344;28;19928;-76
2022/03/20 02:54:52;;;;;;;;;;;8.30;99.90;;;;;;5091884;28;19912;-76
2022/03/20 02:57:18;;;;;;;;;;;8.20;99.90;;;;;;5092752;28;19912;-76
2022/03/20 02:59:44;;;;;;;;;;;8.20;99.90;;;;;;5090936;28;19922;-76
2022/03/20 03:02:11;;;;;;;;;;;8.20;99.90;;;;;;5093059;28;19959;-76
2022/03/20 03:04:37;;;;;;;;;;;8.20;99.90;;;;;;5092484;28;19915;-76
2022/03/20 03:07:03;;;;;;;;;;;8.10;99.90;;;;;;5091903;28;20418;-76
2022/03/20 03:12:13;;;;;;;;;;;8.00;99.90;;;;;;5092555;28;19915;-76
2022/03/20 03:17:27;;;;;;;;;;;8.00;99.90;;;;;;5092374;28;20045;-75
2022/03/20 03:19:54;;;;;;;;;;;8.00;99.90;;;;;;5091853;28;19908;-76
2022/03/20 03:22:20;;;;;;;;;;;8.00;99.90;;;;;;5092381;28;19915;-76
2022/03/20 03:24:45;;;;;;;;;;;7.90;99.90;;;;;;5091848;28;19908;-76
2022/03/20 03:27:11;;;;;;;;;;;7.90;99.90;;;;;;5092157;28;20246;-76
2022/03/20 03:29:36;;;;;;;;;;;7.80;99.90;;;;;;5092705;28;20344;-76
2022/03/20 03:32:02;;;;;;;;;;;7.90;99.90;;;;;;5094147;28;19908;-76
2022/03/20 03:37:12;;;;;;;;;;;7.80;99.90;;;;;;5096072;28;20004;-76
2022/03/20 03:39:37;;;;;;;;;;;7.80;99.90;;;;;;5095589;28;19935;-76
2022/03/20 03:42:03;;;;;;;;;;;7.80;99.90;;;;;;5093846;28;19908;-76
2022/03/20 03:44:29;;;;;;;;;;;7.90;99.90;;;;;;5095670;28;19955;-76
2022/03/20 03:46:57;;;;;;;;;;;7.80;99.90;;;;;;5107610;28;19968;-76
2022/03/20 03:49:23;;;;;;;;;;;7.80;99.90;;;;;;5096295;28;19968;-76
2022/03/20 03:51:48;;;;;;;;;;;7.80;99.90;;;;;;5095098;28;20263;-76
2022/03/20 03:54:14;;;;;;;;;;;7.80;99.90;;;;;;5095482;28;19931;-76
2022/03/20 03:56:40;;;;;;;;;;;7.80;99.90;;;;;;5095932;28;19909;-76
2022/03/20 03:59:05;;;;;;;;;;;7.80;99.90;;;;;;5094613;28;20657;-76
2022/03/20 04:01:31;;;;;;;;;;;7.80;99.90;;;;;;5095208;28;19978;-76
2022/03/20 04:03:57;;;;;;;;;;;7.80;99.90;;;;;;5094560;28;20244;-76
2022/03/20 04:06:22;;;;;;;;;;;7.80;99.90;;;;;;5095833;28;19995;-76
2022/03/20 04:08:48;;;;;;;;;;;7.80;99.90;;;;;;5095071;28;20340;-76
2022/03/20 04:11:13;;;;;;;;;;;7.70;99.90;;;;;;5095056;28;19973;-76
2022/03/20 04:13:40;;;;;;;;;;;7.80;99.90;;;;;;5094963;28;19944;-76
2022/03/20 04:16:07;;;;;;;;;;;7.80;99.90;;;;;;5094521;28;19955;-76
2022/03/20 04:18:32;;;;;;;;;;;7.80;99.90;;;;;;5094978;28;19914;-76
2022/03/20 04:20:58;;;;;;;;;;;7.70;99.90;;;;;;5094285;28;19914;-76
2022/03/20 04:26:07;;;;;;;;;;;7.70;99.90;;;;;;5094173;28;19939;-76
2022/03/20 04:28:33;;;;;;;;;;;7.70;99.90;;;;;;5095085;28;20308;-76
2022/03/20 04:30:58;;;;;;;;;;;7.70;99.90;;;;;;5094115;28;19961;-76
2022/03/20 04:33:27;;;;;;;;;;;7.60;99.90;;;;;;5094754;28;19909;-76
2022/03/20 04:35:53;;;;;;;;;;;7.70;99.90;;;;;;5094027;28;19916;-76
2022/03/20 04:38:21;;;;;;;;;;;7.60;99.90;;;;;;5094345;28;20406;-76
2022/03/20 04:40:48;;;;;;;;;;;7.60;99.90;;;;;;5094202;28;19915;-76
2022/03/20 04:43:13;;;;;;;;;;;7.60;99.90;;;;;;5093884;28;19914;-76
2022/03/20 04:45:39;;;;;;;;;;;7.60;99.90;;;;;;5094817;28;19908;-76
2022/03/20 04:59:01;;;;;;;;;;;7.50;99.90;;;;;;5093619;28;20020;-76
2022/03/20 05:01:26;;;;;;;;;;;7.40;99.90;;;;;;5094316;28;20424;-76
2022/03/20 05:03:52;;;;;;;;;;;7.40;99.90;;;;;;5100139;28;19908;-76
2022/03/20 05:06:17;;;;;;;;;;;7.40;99.90;;;;;;5126858;27;19908;-76
2022/03/20 05:08:43;;;;;;;;;;;7.30;99.90;;;;;;5093889;28;19912;-76
2022/03/20 05:13:53;;;;;;;;;;;7.30;99.90;;;;;;5093135;28;19994;-76
2022/03/20 05:16:18;;;;;;;;;;;7.30;99.90;;;;;;5093887;28;19908;-75
2022/03/20 05:18:44;;;;;;;;;;;7.30;99.90;;;;;;5093975;28;19916;-75
2022/03/20 05:21:10;;;;;;;;;;;7.30;99.90;;;;;;5092043;28;19916;-76
2022/03/20 05:23:36;;;;;;;;;;;7.30;99.90;;;;;;5093776;28;19912;-76
2022/03/20 05:26:02;;;;;;;;;;;7.30;99.90;;;;;;5093032;28;19951;-76
2022/03/20 05:28:27;;;;;;;;;;;7.20;99.90;;;;;;5126561;27;19938;-76
2022/03/20 05:30:54;;;;;;;;;;;7.20;99.90;;;;;;5093554;28;20415;-76
2022/03/20 05:33:20;;;;;;;;;;;7.20;99.90;;;;;;5093469;28;19917;-76
2022/03/20 05:35:45;;;;;;;;;;;7.20;99.90;;;;;;5093907;28;19986;-75
2022/03/20 05:38:11;;;;;;;;;;;7.10;99.90;;;;;;5093049;28;19991;-76
2022/03/20 05:40:37;;;;;;;;;;;7.20;99.90;;;;;;5093788;28;19908;-76
2022/03/20 05:43:03;;;;;;;;;;;7.20;99.90;;;;;;5092953;28;19953;-75
2022/03/20 05:45:29;;;;;;;;;;;7.20;99.90;;;;;;5093979;28;19912;-75
2022/03/20 05:47:54;;;;;;;;;;;7.20;99.90;;;;;;5092998;28;19908;-76
2022/03/20 05:50:20;;;;;;;;;;;7.20;99.90;;;;;;5091393;28;19908;-76
2022/03/20 05:52:46;;;;;;;;;;;7.20;99.90;;;;;;5092289;28;19965;-76
2022/03/20 05:55:12;;;;;;;;;;;7.10;99.90;;;;;;5092353;28;19916;-76
2022/03/20 06:00:27;;;;;;;;;;;7.10;99.90;;;;;;5093468;28;19915;-76
2022/03/20 06:02:52;;;;;;;;;;;7.10;99.90;;;;;;5093022;28;20369;-76
2022/03/20 06:05:18;;;;;;;;;;;7.10;99.90;;;;;;5092615;28;19975;-76
2022/03/20 06:07:46;;;;;;;;;;;7.10;99.90;;;;;;5093129;28;19916;-76
2022/03/20 06:10:12;;;;;;;;;;;7.10;99.90;;;;;;5092561;28;19950;-76
2022/03/20 06:12:38;;;;;;;;;;;7.00;99.90;;;;;;5093099;28;19909;-76
2022/03/20 06:15:04;;;;;;;;;;;7.10;99.90;;;;;;5092342;28;19946;-76
2022/03/20 06:17:29;;;;;;;;;;;7.10;99.90;;;;;;5093109;28;19944;-76
2022/03/20 06:19:55;;;;;;;;;;;7.00;99.90;;;;;;5096352;28;19908;-76
2022/03/20 06:22:21;;;;;;;;;;;7.00;99.90;;;;;;5091098;28;20003;-76
2022/03/20 06:24:47;;;;;;;;;;;7.00;99.90;;;;;;5093066;28;19912;-76
2022/03/20 06:27:12;;;;;;;;;;;7.00;99.90;;;;;;5092147;28;19908;-76
2022/03/20 06:29:38;;;;;;;;;;;7.00;99.90;;;;;;5093030;28;20045;-76
2022/03/20 06:32:04;;;;;;;;;;;7.10;99.90;;;;;;5092174;28;20424;-76
2022/03/20 06:34:29;;;;;;;;;;;7.00;99.90;;;;;;5092743;28;19916;-76
2022/03/20 06:36:57;;;;;;;;;;;6.90;99.90;;;;;;5092590;28;19915;-76
2022/03/20 06:39:23;;;;;;;;;;;6.80;99.90;;;;;;5092856;28;19985;-76
2022/03/20 06:41:49;;;;;;;;;;;6.80;99.90;;;;;;5092821;28;20361;-76
2022/03/20 06:44:15;;;;;;;;;;;6.80;99.90;;;;;;5090438;28;19935;-76
2022/03/20 06:46:41;;;;;;;;;;;6.70;99.90;;;;;;5092790;28;20390;-76
2022/03/20 06:49:09;;;;;;;;;;;6.70;99.90;;;;;;5092125;28;19987;-76
2022/03/20 06:51:34;;;;;;;;;;;6.60;99.90;;;;;;5092586;28;19916;-76
2022/03/20 06:54:00;;;;;;;;;;;6.70;99.90;;;;;;5092231;28;19920;-76
2022/03/20 06:56:27;;;;;;;;;;;6.70;99.90;;;;;;5092257;28;19919;-76
2022/03/20 06:58:53;;;;;;;;;;;6.70;99.90;;;;;;5092536;28;19908;-76
2022/03/20 07:01:19;;;;;;;;;;;6.80;99.90;;;;;;5091748;28;19908;-76
2022/03/20 07:03:44;;;;;;;;;;;6.80;99.90;;;;;;5092364;28;19955;-76
2022/03/20 07:06:10;;;;;;;;;;;6.70;99.90;;;;;;5095988;28;20206;-76
2022/03/20 07:08:35;;;;;;;;;;;6.70;99.90;;;;;;5095197;28;20353;-76
2022/03/20 07:11:01;;;;;;;;;;;6.80;99.90;;;;;;5094723;28;19908;-76
2022/03/20 07:16:14;;;;;;;;;;;6.90;99.90;;;;;;5095253;28;19919;-76
2022/03/20 07:18:40;;;;;;;;;;;7.10;99.90;;;;;;5095949;28;20052;-75
2022/03/20 07:21:06;;;;;;;;;;;7.20;99.90;;;;;;5095617;28;19909;-75
2022/03/20 07:23:32;;;;;;;;;;;7.30;99.90;;;;;;5096054;28;19908;-76
2022/03/20 07:31:26;;;;;;;;;;;7.60;99.90;;;;;;5095213;28;19915;-76
2022/03/20 07:33:52;;;;;;;;;;;7.70;99.90;;;;;;5094499;28;19908;-76
2022/03/20 07:36:19;;;;;;;;;;;7.80;99.90;;;;;;5095364;28;19947;-76
2022/03/20 07:38:45;;;;;;;;;;;7.90;99.90;;;;;;5095860;28;19920;-76
2022/03/20 07:41:11;;;;;;;;;;;7.90;99.90;;;;;;5095271;28;19916;-76
2022/03/20 07:43:36;;;;;;;;;;;8.10;99.90;;;;;;5095703;28;20280;-76
2022/03/20 07:46:02;;;;;;;;;;;8.20;99.90;;;;;;5095362;28;19915;-76
2022/03/20 07:48:27;;;;;;;;;;;8.20;99.90;;;;;;5094006;28;19919;-76
2022/03/20 07:50:53;;;;;;;;;;;8.30;99.90;;;;;;5095368;28;19909;-76
2022/03/20 07:53:19;;;;;;;;;;;8.40;99.90;;;;;;5094590;28;20373;-76
2022/03/20 07:55:45;;;;;;;;;;;8.50;99.90;;;;;;5093956;28;20268;-76
2022/03/20 07:58:12;;;;;;;;;;;8.60;99.90;;;;;;5093606;28;20367;-76
2022/03/20 08:00:40;;;;;;;;;;;8.60;99.90;;;;;;5095669;28;19908;-76
2022/03/20 08:03:06;;;;;;;;;;;8.70;99.90;;;;;;5094438;28;20364;-76
2022/03/20 08:05:32;;;;;;;;;;;8.80;99.90;;;;;;5095569;28;19908;-76
2022/03/20 08:07:58;;;;;;;;;;;8.80;99.90;;;;;;5093682;28;20003;-76
2022/03/20 08:10:24;;;;;;;;;;;8.80;99.90;;;;;;5094421;28;20196;-76
2022/03/20 08:12:49;;;;;;;;;;;8.90;99.90;;;;;;5094706;28;20371;-76
2022/03/20 08:15:15;;;;;;;;;;;9.00;99.90;;;;;;5093612;28;19916;-77
2022/03/20 08:17:44;;;;;;;;;;;9.10;99.90;;;;;;5094851;28;19919;-76
2022/03/20 08:20:10;;;;;;;;;;;9.10;99.90;;;;;;5094406;28;19914;-76
2022/03/20 08:22:37;;;;;;;;;;;9.20;99.90;;;;;;5093641;28;19909;-76
2022/03/20 08:25:03;;;;;;;;;;;9.20;99.90;;;;;;5094749;28;19908;-76
2022/03/20 08:27:28;;;;;;;;;;;9.30;99.90;;;;;;5093940;28;20001;-76
2022/03/20 08:29:55;;;;;;;;;;;9.30;99.90;;;;;;5094803;28;19963;-76
2022/03/20 08:32:22;;;;;;;;;;;9.30;99.90;;;;;;5094180;28;19943;-76
2022/03/20 08:34:47;;;;;;;;;;;9.30;99.90;;;;;;5094106;28;19916;-76
2022/03/20 08:37:14;;;;;;;;;;;9.30;99.90;;;;;;5093703;28;19957;-75
2022/03/20 08:39:39;;;;;;;;;;;9.40;99.90;;;;;;5093930;28;19908;-76
2022/03/20 08:42:06;;;;;;;;;;;9.40;99.90;;;;;;5094317;28;19915;-75
2022/03/20 08:44:31;;;;;;;;;;;9.50;99.90;;;;;;5093788;28;20360;-76
2022/03/20 08:46:57;;;;;;;;;;;9.50;99.90;;;;;;5094066;28;19908;-77
2022/03/20 08:49:22;;;;;;;;;;;9.50;99.90;;;;;;5094860;28;19954;-76
2022/03/20 08:51:48;;;;;;;;;;;9.60;99.90;;;;;;5093192;28;20357;-77
2022/03/20 08:54:14;;;;;;;;;;;9.60;99.90;;;;;;5092122;28;20011;-78
2022/03/20 08:56:39;;;;;;;;;;;9.60;99.90;;;;;;5093500;28;19916;-76
2022/03/20 08:59:08;;;;;;;;;;;9.60;99.90;;;;;;5093901;28;19908;-77
2022/03/20 09:01:34;;;;;;;;;;;9.60;99.90;;;;;;5093334;28;19919;-75
2022/03/20 09:04:00;;;;;;;;;;;9.70;99.90;;;;;;5093611;28;19908;-75
2022/03/20 09:06:26;;;;;;;;;;;9.70;99.90;;;;;;5093135;28;20356;-75
2022/03/20 09:08:51;;;;;;;;;;;9.70;99.90;;;;;;5094034;28;19915;-76
2022/03/20 09:11:17;;;;;;;;;;;9.70;99.90;;;;;;5092808;28;19995;-76
2022/03/20 09:13:43;;;;;;;;;;;9.80;99.90;;;;;;5093204;28;20377;-75
2022/03/20 09:18:59;;;;;;;;;;;9.80;99.90;;;;;;5091852;28;19957;-76
2022/03/20 09:21:25;;;;;;;;;;;9.80;99.90;;;;;;5091493;28;19987;-76
2022/03/20 09:23:51;;;;;;;;;;;9.80;99.90;;;;;;5092887;28;19931;-76
2022/03/20 09:26:16;;;;;;;;;;;9.80;99.90;;;;;;5092839;28;20348;-75
2022/03/20 09:28:43;;;;;;;;;;;9.80;99.90;;;;;;5093393;28;19908;-76
2022/03/20 09:31:09;;;;;;;;;;;9.80;99.90;;;;;;5093372;28;19908;-76
2022/03/20 09:33:35;;;;;;;;;;;9.70;99.90;;;;;;5092517;28;19908;-76
2022/03/20 09:36:00;;;;;;;;;;;9.70;99.90;;;;;;5092740;28;19958;-76
2022/03/20 09:38:26;;;;;;;;;;;9.60;99.90;;;;;;5092386;28;20340;-76
2022/03/20 09:40:51;;;;;;;;;;;9.60;99.90;;;;;;5092709;28;19965;-76
2022/03/20 09:43:17;;;;;;;;;;;9.60;99.90;;;;;;5092069;28;19908;-76
2022/03/20 09:45:44;;;;;;;;;;;9.60;99.90;;;;;;5092682;28;19919;-76
2022/03/20 09:48:11;;;;;;;;;;;9.60;99.90;;;;;;5092349;28;20308;-76
2022/03/20 09:50:37;;;;;;;;;;;9.60;99.90;;;;;;5092244;28;19908;-76
2022/03/20 09:53:02;;;;;;;;;;;9.60;99.90;;;;;;5090717;28;20371;-76
2022/03/20 09:55:30;;;;;;;;;;;9.60;99.90;;;;;;5088239;28;20449;-76
2022/03/20 09:57:56;;;;;;;;;;;9.70;99.90;;;;;;5081537;28;19916;-76
2022/03/20 10:00:22;;;;;;;;;;;9.70;99.90;;;;;;5091927;28;20365;-76
2022/03/20 10:02:47;;;;;;;;;;;9.70;99.90;;;;;;5092453;28;19969;-76
2022/03/20 10:05:19;;;;;;;;;;;9.60;99.90;;;;;;5090645;28;19958;-76
2022/03/20 10:07:44;;;;;;;;;;;9.60;99.90;;;;;;5092418;28;20322;-76
2022/03/20 10:10:10;;;;;;;;;;;9.70;99.90;;;;;;5091676;28;19916;-76
2022/03/20 10:12:36;;;;;;;;;;;9.70;99.90;;;;;;5091701;28;20015;-76
2022/03/20 10:15:02;;;;;;;;;;;9.70;99.90;;;;;;5092038;28;19963;-76
2022/03/20 10:17:28;;;;;;;;;;;9.70;99.90;;;;;;5091768;28;19965;-76
2022/03/20 10:19:55;;;;;;;;;;;9.70;99.90;;;;;;5092377;28;19912;-75
2022/03/20 10:22:21;;;;;;;;;;;9.70;99.90;;;;;;5091365;28;19908;-75
2022/03/20 10:24:48;;;;;;;;;;;9.70;99.90;;;;;;5091578;28;20022;-75
2022/03/20 10:27:14;;;;;;;;;;;9.70;99.90;;;;;;5091759;28;19908;-76
2022/03/20 10:29:53;;;;;;;;;;;9.70;99.90;;;;;;5091452;28;19912;-75
2022/03/20 10:32:19;;;;;;;;;;;9.80;99.90;;;;;;5089175;28;19946;-75
2022/03/20 10:34:55;;;;;;;;;;;9.80;99.90;;;;;;5091690;28;19967;-75
2022/03/20 10:37:40;;;;;;;;;;;9.70;99.90;;;;;;5093990;28;20355;-75
2022/03/20 10:40:07;;;;;;;;;;;9.70;99.90;;;;;;5095119;28;19957;-76
2022/03/20 10:42:32;;;;;;;;;;;9.70;99.90;;;;;;5095447;28;19956;-75
2022/03/20 10:45:05;;;;;;;;;;;9.70;99.90;;;;;;5096391;28;19990;-76
2022/03/20 10:47:31;;;;;;;;;;;9.70;99.90;;;;;;5093311;28;20400;-76
2022/03/20 10:50:07;;;;;;;;;;;9.70;99.90;;;;;;5096567;28;19954;-75
2022/03/20 10:52:36;;;;;;;;;;;9.70;99.90;;;;;;5095526;28;19916;-75
2022/03/20 10:55:09;;;;;;;;;;;9.70;99.90;;;;;;5096524;28;19927;-76
2022/03/20 10:57:34;;;;;;;;;;;9.70;99.90;;;;;;5096026;28;19912;-75
2022/03/20 11:00:01;;;;;;;;;;;9.80;99.90;;;;;;5096400;28;19908;-75
2022/03/20 11:02:27;;;;;;;;;;;9.80;99.90;;;;;;5095884;28;19995;-75
2022/03/20 11:04:53;;;;;;;;;;;9.90;99.90;;;;;;5096414;28;19948;-76
2022/03/20 11:07:19;;;;;;;;;;;9.80;99.90;;;;;;5095856;28;19908;-76
2022/03/20 11:09:46;;;;;;;;;;;9.80;99.90;;;;;;5095985;28;19993;-76
2022/03/20 11:12:14;;;;;;;;;;;9.90;99.90;;;;;;5096253;28;19908;-75
2022/03/20 11:14:42;;;;;;;;;;;9.90;99.90;;;;;;5095662;28;19916;-76
2022/03/20 11:17:08;;;;;;;;;;;9.90;99.90;;;;;;5095883;28;19927;-75
2022/03/20 11:19:36;;;;;;;;;;;10.00;99.90;;;;;;5095611;28;19924;-75
2022/03/20 11:22:06;;;;;;;;;;;10.00;99.90;;;;;;5095874;28;19915;-75
2022/03/20 11:24:33;;;;;;;;;;;10.00;99.90;;;;;;5094032;28;19908;-76
2022/03/20 11:27:01;;;;;;;;;;;10.10;99.90;;;;;;5096089;28;19961;-76
2022/03/20 11:29:28;;;;;;;;;;;10.10;99.90;;;;;;5095386;28;19908;-76
2022/03/20 11:31:54;;;;;;;;;;;10.00;99.90;;;;;;5095268;28;19908;-75
2022/03/20 11:34:21;;;;;;;;;;;10.10;99.90;;;;;;5094765;28;20420;-75
2022/03/20 11:37:03;;;;;;;;;;;10.10;99.90;;;;;;5094417;28;19912;-75
2022/03/20 11:39:29;;;;;;;;;;;10.10;99.90;;;;;;5095187;28;19908;-75
2022/03/20 11:42:14;;;;;;;;;;;10.10;99.90;;;;;;5096170;28;19908;-75
2022/03/20 11:44:49;;;;;;;;;;;10.10;99.90;;;;;;5094821;28;19908;-75
2022/03/20 11:47:15;;;;;;;;;;;10.20;99.90;;;;;;5095354;28;19961;-75
2022/03/20 11:49:40;;;;;;;;;;;10.20;99.90;;;;;;5094414;28;19911;-75
2022/03/20 11:52:07;;;;;;;;;;;10.30;99.90;;;;;;5099162;28;19908;-76
2022/03/20 11:54:41;;;;;;;;;;;10.20;99.90;;;;;;5095105;28;19969;-75
2022/03/20 11:57:33;;;;;;;;;;;10.30;99.90;;;;;;5095199;28;19908;-75
2022/03/20 12:00:28;;;;;;;;;;;10.30;99.90;;;;;;5093287;28;19915;-75
2022/03/20 12:03:02;;;;;;;;;;;10.30;99.90;;;;;;5085949;28;20360;-75
2022/03/20 12:05:46;;;;;;;;;;;10.30;99.90;;;;;;5094512;28;19958;-75
2022/03/20 12:08:21;;;;;;;;;;;10.40;99.90;;;;;;5094885;28;19908;-75
2022/03/20 12:10:46;;;;;;;;;;;10.40;99.90;;;;;;5095179;28;19908;-75
2022/03/20 12:13:12;;;;;;;;;;;10.40;99.90;;;;;;5095192;28;20398;-78
2022/03/20 12:15:42;;;;;;;;;;;10.50;99.90;;;;;;5094373;28;19920;-75
2022/03/20 12:18:10;;;;;;;;;;;10.50;99.90;;;;;;5094529;28;19915;-75
2022/03/20 12:21:01;;;;;;;;;;;10.60;99.90;;;;;;5093998;28;20387;-75
2022/03/20 12:23:31;;;;;;;;;;;10.70;99.90;;;;;;5092813;28;19912;-75
2022/03/20 12:25:57;;;;;;;;;;;10.60;99.90;;;;;;5091791;28;19908;-75
2022/03/20 12:28:30;;;;;;;;;;;10.70;99.90;;;;;;5094231;28;19908;-75
2022/03/20 12:30:55;;;;;;;;;;;10.70;99.90;;;;;;5094539;28;20298;-76
2022/03/20 12:33:22;;;;;;;;;;;10.80;99.90;;;;;;5094349;28;19954;-76
2022/03/20 12:35:47;;;;;;;;;;;10.80;99.90;;;;;;5094412;28;19924;-76
2022/03/20 12:38:31;;;;;;;;;;;10.90;99.90;;;;;;5094359;28;20297;-76
2022/03/20 12:41:04;;;;;;;;;;;11.00;99.90;;;;;;5094421;28;19909;-75
2022/03/20 12:43:30;;;;;;;;;;;11.00;99.90;;;;;;5093945;28;19951;-76
2022/03/20 12:45:57;;;;;;;;;;;11.00;99.90;;;;;;5094391;28;19943;-76
2022/03/20 12:48:23;;;;;;;;;;;11.00;99.90;;;;;;5093542;28;19908;-76
2022/03/20 12:50:52;;;;;;;;;;;10.90;99.90;;;;;;5093999;28;19962;-76
2022/03/20 12:53:21;;;;;;;;;;;10.90;99.90;;;;;;5093515;28;20270;-76
2022/03/20 12:56:00;;;;;;;;;;;10.90;99.90;;;;;;5093968;28;19920;-76
2022/03/20 12:58:26;;;;;;;;;;;11.00;99.90;;;;;;5093518;28;19909;-77
2022/03/20 13:00:53;;;;;;;;;;;11.10;99.90;;;;;;5094201;28;19927;-76
2022/03/20 13:03:19;;;;;;;;;;;11.10;99.90;;;;;;5093806;28;19915;-76
2022/03/20 13:05:45;;;;;;;;;;;11.10;99.90;;;;;;5093529;28;19908;-75
2022/03/20 13:08:11;;;;;;;;;;;11.10;99.90;;;;;;5094005;28;20347;-76
2022/03/20 13:10:37;;;;;;;;;;;11.20;99.90;;;;;;5093568;28;20379;-76
2022/03/20 13:13:03;;;;;;;;;;;11.30;99.90;;;;;;5093778;28;19908;-75
2022/03/20 13:15:30;;;;;;;;;;;11.20;99.90;;;;;;5092982;28;19916;-78
2022/03/20 13:17:56;;;;;;;;;;;11.20;99.90;;;;;;5093492;28;19981;-75
2022/03/20 13:20:26;;;;;;;;;;;11.20;99.90;;;;;;5093687;28;19908;-76
2022/03/20 13:22:52;;;;;;;;;;;11.00;99.90;;;;;;5093267;28;20024;-78
2022/03/20 13:25:19;;;;;;;;;;;11.00;99.90;;;;;;5093205;28;20000;-76
2022/03/20 13:27:47;;;;;;;;;;;10.90;99.90;;;;;;5091359;28;20423;-75
2022/03/20 13:30:14;;;;;;;;;;;10.90;99.90;;;;;;5093043;28;20262;-76
2022/03/20 13:32:41;;;;;;;;;;;11.00;99.90;;;;;;5092918;28;19915;-75
2022/03/20 13:35:06;;;;;;;;;;;10.80;99.90;;;;;;5093481;28;19985;-76
2022/03/20 13:37:32;;;;;;;;;;;10.70;99.90;;;;;;5092864;28;20353;-76
2022/03/20 13:39:58;;;;;;;;;;;10.70;99.90;;;;;;5093365;28;19912;-76
2022/03/20 13:42:26;;;;;;;;;;;10.70;99.90;;;;;;5093389;28;19916;-77
2022/03/20 13:44:52;;;;;;;;;;;10.80;99.90;;;;;;5093301;28;19908;-76
2022/03/20 13:47:18;;;;;;;;;;;10.80;99.90;;;;;;5102980;28;20364;-77
2022/03/20 13:49:44;;;;;;;;;;;10.60;99.90;;;;;;5093286;28;19912;-76
2022/03/20 13:52:12;;;;;;;;;;;10.60;99.90;;;;;;5092756;28;19908;-76
2022/03/20 13:54:40;;;;;;;;;;;10.70;99.90;;;;;;5092323;28;19969;-76
2022/03/20 13:57:10;;;;;;;;;;;10.70;99.90;;;;;;5093076;28;19908;-77
2022/03/20 13:59:48;;;;;;;;;;;10.80;99.90;;;;;;5092835;28;19996;-74
2022/03/20 14:02:13;;;;;;;;;;;10.90;99.90;;;;;;5092937;28;20369;-76
2022/03/20 14:04:39;;;;;;;;;;;11.00;99.90;;;;;;5092399;28;19915;-76
2022/03/20 14:07:17;;;;;;;;;;;11.00;99.90;;;;;;5092943;28;19947;-76
2022/03/20 14:09:42;;;;;;;;;;;11.00;99.90;;;;;;5092333;28;19915;-78
2022/03/20 14:12:28;;;;;;;;;;;11.10;99.90;;;;;;5102922;28;19915;-77
2022/03/20 14:14:55;;;;;;;;;;;11.00;99.90;;;;;;5094819;28;19971;-77
2022/03/20 14:17:40;;;;;;;;;;;11.10;99.90;;;;;;5092972;28;20250;-76
2022/03/20 14:20:10;;;;;;;;;;;11.10;99.90;;;;;;5092923;28;19909;-76
2022/03/20 14:22:42;;;;;;;;;;;11.20;99.90;;;;;;5091101;28;19908;-77
2022/03/20 14:25:08;;;;;;;;;;;11.10;99.90;;;;;;5092445;28;19909;-76
2022/03/20 14:27:36;;;;;;;;;;;11.00;99.90;;;;;;5092075;28;20060;-77
2022/03/20 14:41:32;;;;;;;;;;;11.40;99.90;;;;;;5092555;28;19915;-78
2022/03/20 14:44:15;;;;;;;;;;;11.40;99.90;;;;;;5092444;28;20346;-75
2022/03/20 14:46:44;;;;;;;;;;;11.40;99.90;;;;;;5091824;28;20000;-76
2022/03/20 14:49:10;;;;;;;;;;;11.40;99.90;;;;;;5092696;28;20443;-76
2022/03/20 14:51:37;;;;;;;;;;;11.50;99.90;;;;;;5092040;28;19908;-76
2022/03/20 14:54:03;;;;;;;;;;;11.50;99.90;;;;;;5091953;28;19920;-76
2022/03/20 14:56:30;;;;;;;;;;;11.60;99.90;;;;;;5095982;28;19930;-75
2022/03/20 14:58:57;;;;;;;;;;;11.60;99.90;;;;;;5097251;28;20312;-76
2022/03/20 15:01:23;;;;;;;;;;;11.60;99.90;;;;;;5096661;28;20026;-76
2022/03/20 15:03:49;;;;;;;;;;;11.60;99.90;;;;;;5104653;28;20627;-77
2022/03/20 15:06:15;;;;;;;;;;;11.70;99.90;;;;;;5093730;28;19951;-76
2022/03/20 15:11:25;;;;;;;;;;;11.70;99.90;;;;;;5092441;28;20388;-76
2022/03/20 15:13:55;;;;;;;;;;;11.80;99.90;;;;;;5091114;28;19998;-76
2022/03/20 15:16:21;;;;;;;;;;;11.80;99.90;;;;;;5091035;28;19927;-76
2022/03/20 15:18:48;;;;;;;;;;;11.70;99.90;;;;;;5091402;28;20351;-76